Time;durP1;ratioP1;P1;durP2;ratioP2;P2;SDS_P1;SDS_P2;PMS_P1;PMS_P2;Temp;Humidity;BMP_temperature;BMP_pressure;BME280_temperature;BME280_humidity;BME280_pressure;Samples;Min_cycle;Max_cycle;Signal;HPM_P1;HPM_P2
2023/01/27 00:01:15;;;;;;;2.85;2.65;;;;;;;;;;4996344;28;20043;-89
2023/01/27 00:03:43;;;;;;;2.05;1.88;;;;;;;;;;4996490;28;20050;-89
2023/01/27 00:06:11;;;;;;;2.85;2.65;;;;;;;;;;4996179;28;20050;-89
2023/01/27 00:08:38;;;;;;;2.45;2.33;;;;;;;;;;4995304;28;20062;-90
2023/01/27 00:13:49;;;;;;;1.70;1.60;;;;;;;;;;4996244;28;20140;-89
2023/01/27 00:16:15;;;;;;;4.07;3.63;;;;;;;;;;4995965;28;20050;-90
2023/01/27 00:18:43;;;;;;;2.95;2.75;;;;;;;;;;4996719;28;20054;-90
2023/01/27 00:26:38;;;;;;;4.68;2.78;;;;;;;;;;4999739;28;20218;-90
2023/01/27 00:29:04;;;;;;;1.77;1.27;;;;;;;;;;4997965;28;20050;-90
2023/01/27 00:34:16;;;;;;;1.88;1.50;;;;;;;;;;4997596;28;20061;-90
2023/01/27 00:36:43;;;;;;;2.03;1.92;;;;;;;;;;4998137;28;20046;-90
2023/01/27 00:39:11;;;;;;;2.35;2.13;;;;;;;;;;4996274;28;20141;-90
2023/01/27 00:41:38;;;;;;;2.00;1.90;;;;;;;;;;4997200;28;20046;-91
2023/01/27 00:44:04;;;;;;;1.67;1.58;;;;;;;;;;4996052;28;20054;-90
2023/01/27 00:46:31;;;;;;;2.90;2.70;;;;;;;;;;4995686;28;20560;-89
2023/01/27 00:48:58;;;;;;;3.70;3.40;;;;;;;;;;4995461;28;20116;-90
2023/01/27 00:51:26;;;;;;;4.10;3.38;;;;;;;;;;4996169;28;20046;-89
2023/01/27 00:53:52;;;;;;;4.82;3.72;;;;;;;;;;4995964;28;20050;-88
2023/01/27 00:56:19;;;;;;;6.13;3.20;;;;;;;;;;4995480;28;20058;-89
2023/01/27 00:58:45;;;;;;;3.40;3.20;;;;;;;;;;4995507;28;20054;-89
2023/01/27 01:01:13;;;;;;;1.95;1.85;;;;;;;;;;4995748;28;20046;-89
2023/01/27 01:03:39;;;;;;;2.67;2.47;;;;;;;;;;4995040;28;20569;-91
2023/01/27 01:06:07;;;;;;;2.17;2.03;;;;;;;;;;4995442;28;20101;-91
2023/01/27 01:08:36;;;;;;;4.72;4.30;;;;;;;;;;4995516;28;20496;-91
2023/01/27 02:20:43;;;;;;;1.55;1.45;;;;;;;;;;5078218;23;20050;-89
2023/01/27 02:23:12;;;;;;;1.02;0.93;;;;;;;;;;4994176;28;20051;-89
2023/01/27 02:25:44;;;;;;;2.60;2.45;;;;;;;;;;4993784;28;20050;-90
2023/01/27 02:28:11;;;;;;;5.65;5.13;;;;;;;;;;4994247;28;20108;-90
2023/01/27 02:30:37;;;;;;;3.20;3.00;;;;;;;;;;4993921;28;20055;-90
2023/01/27 02:33:06;;;;;;;1.73;1.63;;;;;;;;;;4996244;28;20058;-90
2023/01/27 02:35:34;;;;;;;3.13;2.95;;;;;;;;;;4997938;28;20046;-90
2023/01/27 02:38:01;;;;;;;1.83;1.73;;;;;;;;;;4998395;28;20061;-90
2023/01/27 02:40:28;;;;;;;2.28;2.17;;;;;;;;;;4998005;28;20054;-90
2023/01/27 02:42:56;;;;;;;2.80;2.25;;;;;;;;;;4999645;28;20058;-90
2023/01/27 02:45:23;;;;;;;1.92;1.83;;;;;;;;;;4998084;28;20043;-91
2023/01/27 02:47:49;;;;;;;3.58;3.28;;;;;;;;;;4998418;28;20046;-90
2023/01/27 02:50:16;;;;;;;2.45;2.28;;;;;;;;;;4997580;28;20046;-91
2023/01/27 02:52:43;;;;;;;5.35;3.20;;;;;;;;;;4997778;28;20496;-91
2023/01/27 02:55:10;;;;;;;1.38;1.33;;;;;;;;;;4997409;28;20050;-91
2023/01/27 02:57:36;;;;;;;6.40;4.22;;;;;;;;;;4997901;28;20397;-90
2023/01/27 03:00:04;;;;;;;1.27;1.17;;;;;;;;;;4997929;28;20097;-90
2023/01/27 03:02:31;;;;;;;2.35;1.85;;;;;;;;;;4997589;28;20058;-90
2023/01/27 03:04:58;;;;;;;2.90;2.75;;;;;;;;;;4997822;28;20050;-90
2023/01/27 03:07:24;;;;;;;4.72;3.10;;;;;;;;;;4998034;28;20050;-90
2023/01/27 03:09:51;;;;;;;3.67;2.42;;;;;;;;;;4998016;28;20116;-91
2023/01/27 03:12:20;;;;;;;1.70;1.60;;;;;;;;;;4997475;28;20050;-90
2023/01/27 03:20:16;;;;;;;3.88;2.03;;;;;;;;;;4997656;28;20069;-89
2023/01/27 03:22:43;;;;;;;1.20;1.10;;;;;;;;;;4997118;28;20047;-89
2023/01/27 03:25:10;;;;;;;1.35;1.25;;;;;;;;;;4997241;28;20504;-90
2023/01/27 03:27:36;;;;;;;3.10;2.88;;;;;;;;;;4997286;28;20046;-89
2023/01/27 03:30:03;;;;;;;2.53;2.35;;;;;;;;;;4997006;28;20050;-89
2023/01/27 03:32:31;;;;;;;3.88;3.67;;;;;;;;;;4997487;28;20112;-89
2023/01/27 03:35:00;;;;;;;1.88;1.77;;;;;;;;;;4996553;28;20051;-89
2023/01/27 03:48:24;;;;;;;4.03;2.72;;;;;;;;;;4997151;28;20078;-90
2023/01/27 03:50:53;;;;;;;1.20;1.17;;;;;;;;;;4997030;28;20124;-89
2023/01/27 03:53:19;;;;;;;2.35;2.15;;;;;;;;;;4997273;28;20085;-89
2023/01/27 03:55:46;;;;;;;2.30;2.20;;;;;;;;;;4996958;28;20050;-90
2023/01/27 03:58:18;;;;;;;1.98;1.88;;;;;;;;;;4996941;28;20042;-93
2023/01/27 04:00:45;;;;;;;1.98;1.88;;;;;;;;;;4997305;28;20105;-93
2023/01/27 04:08:42;;;;;;;0.52;0.50;;;;;;;;;;4996739;28;20427;-93
2023/01/27 04:13:52;;;;;;;0.95;0.95;;;;;;;;;;4996467;28;20056;-94
2023/01/27 04:16:19;;;;;;;2.13;2.03;;;;;;;;;;4996557;28;20046;-93
2023/01/27 04:18:46;;;;;;;2.03;1.92;;;;;;;;;;4996234;28;20133;-92
2023/01/27 04:21:14;;;;;;;1.45;1.35;;;;;;;;;;4996271;28;20054;-92
2023/01/27 04:23:40;;;;;;;1.10;1.05;;;;;;;;;;4996633;28;20054;-92
2023/01/27 04:26:07;;;;;;;2.13;0.90;;;;;;;;;;4996618;28;20667;-93
2023/01/27 04:28:33;;;;;;;1.45;1.35;;;;;;;;;;4996441;28;20097;-90
2023/01/27 04:31:00;;;;;;;1.80;1.70;;;;;;;;;;4996472;28;20050;-90
2023/01/27 04:33:26;;;;;;;1.67;1.58;;;;;;;;;;4995734;28;20097;-90
2023/01/27 04:35:53;;;;;;;2.30;1.67;;;;;;;;;;4996451;28;20054;-90
2023/01/27 04:38:21;;;;;;;1.00;1.00;;;;;;;;;;4996434;28;20047;-90
2023/01/27 04:40:48;;;;;;;0.57;0.57;;;;;;;;;;4996109;28;20133;-91
2023/01/27 04:43:14;;;;;;;1.20;1.17;;;;;;;;;;4995995;28;20050;-90
2023/01/27 04:45:41;;;;;;;2.35;2.22;;;;;;;;;;4995499;28;20105;-89
2023/01/27 04:48:07;;;;;;;1.65;1.55;;;;;;;;;;4995707;28;20105;-89
2023/01/27 04:50:34;;;;;;;2.53;2.30;;;;;;;;;;4996059;28;20050;-90
2023/01/27 04:53:00;;;;;;;8.05;2.33;;;;;;;;;;4996090;28;20046;-90
2023/01/27 04:55:28;;;;;;;2.63;2.53;;;;;;;;;;4995606;28;20057;-89
2023/01/27 04:57:55;;;;;;;1.63;1.55;;;;;;;;;;4995961;28;20050;-90
2023/01/27 05:00:21;;;;;;;1.83;1.73;;;;;;;;;;4995738;28;20124;-91
2023/01/27 05:02:48;;;;;;;1.25;1.15;;;;;;;;;;4995571;28;20100;-90
2023/01/27 05:05:14;;;;;;;0.40;0.40;;;;;;;;;;4995890;28;20050;-90
2023/01/27 05:07:41;;;;;;;2.10;2.00;;;;;;;;;;4996074;28;20061;-91
2023/01/27 05:10:08;;;;;;;1.05;1.05;;;;;;;;;;4995645;28;20050;-91
2023/01/27 05:12:36;;;;;;;2.03;1.92;;;;;;;;;;4995399;28;20050;-90
2023/01/27 05:15:02;;;;;;;0.90;0.82;;;;;;;;;;4994997;28;20093;-89
2023/01/27 05:17:31;;;;;;;2.53;2.40;;;;;;;;;;4995117;28;20042;-89
2023/01/27 05:19:57;;;;;;;1.85;1.58;;;;;;;;;;4994826;28;20128;-92
2023/01/27 05:22:24;;;;;;;2.72;2.63;;;;;;;;;;4995505;28;20455;-92
2023/01/27 05:24:51;;;;;;;0.98;0.98;;;;;;;;;;4995483;28;20057;-92
2023/01/27 05:27:17;;;;;;;1.23;1.10;;;;;;;;;;4995417;28;20089;-93
2023/01/27 05:29:45;;;;;;;2.25;2.15;;;;;;;;;;4995276;28;20121;-91
2023/01/27 05:32:11;;;;;;;0.98;0.98;;;;;;;;;;4995040;28;20043;-91
2023/01/27 05:34:38;;;;;;;1.05;0.80;;;;;;;;;;4995167;28;20050;-92
2023/01/27 05:37:04;;;;;;;1.00;1.00;;;;;;;;;;4995163;28;20047;-91
2023/01/27 05:39:31;;;;;;;1.63;1.52;;;;;;;;;;4995294;28;20149;-92
2023/01/27 05:41:57;;;;;;;1.00;1.00;;;;;;;;;;4995428;28;20050;-92
2023/01/27 05:44:24;;;;;;;0.90;0.90;;;;;;;;;;4995363;28;20093;-92
2023/01/27 05:46:52;;;;;;;0.93;0.93;;;;;;;;;;4995507;28;20050;-92
2023/01/27 05:49:18;;;;;;;3.50;3.20;;;;;;;;;;4997176;28;20054;-92
2023/01/27 05:51:45;;;;;;;2.67;2.10;;;;;;;;;;4995257;28;20054;-93
2023/01/27 05:54:11;;;;;;;1.88;1.77;;;;;;;;;;4995070;28;20046;-93
2023/01/27 05:56:39;;;;;;;2.65;2.45;;;;;;;;;;4994871;28;20046;-92
2023/01/27 05:59:06;;;;;;;0.75;0.50;;;;;;;;;;4994966;28;20097;-93
2023/01/27 06:01:36;;;;;;;1.35;1.25;;;;;;;;;;4994826;28;20046;-92
2023/01/27 06:04:04;;;;;;;0.90;0.90;;;;;;;;;;4994832;28;20052;-91
2023/01/27 06:06:31;;;;;;;0.70;0.70;;;;;;;;;;4994470;28;20080;-90
2023/01/27 06:08:58;;;;;;;1.73;1.35;;;;;;;;;;4994067;28;20050;-90
2023/01/27 06:11:25;;;;;;;2.08;1.98;;;;;;;;;;4994687;28;20108;-93
2023/01/27 06:13:52;;;;;;;0.95;0.77;;;;;;;;;;4994655;28;20566;-92
2023/01/27 06:16:20;;;;;;;2.22;2.13;;;;;;;;;;4994756;28;20054;-92
2023/01/27 06:18:47;;;;;;;0.75;0.70;;;;;;;;;;4994337;28;20113;-93
2023/01/27 06:21:15;;;;;;;2.17;1.98;;;;;;;;;;4994472;28;20101;-92
2023/01/27 06:23:42;;;;;;;0.65;0.65;;;;;;;;;;4994287;28;20050;-93
2023/01/27 06:26:09;;;;;;;1.48;1.38;;;;;;;;;;4994639;28;20101;-94
2023/01/27 06:28:36;;;;;;;0.93;0.93;;;;;;;;;;4994592;28;20054;-94
2023/01/27 06:31:06;;;;;;;3.45;3.00;;;;;;;;;;4994999;28;20471;-94
2023/01/27 06:33:33;;;;;;;2.63;1.52;;;;;;;;;;4994805;28;20407;-92
2023/01/27 06:36:03;;;;;;;1.70;1.63;;;;;;;;;;4994881;28;20475;-92
2023/01/27 06:38:31;;;;;;;1.65;1.08;;;;;;;;;;4993618;28;20108;-92
2023/01/27 06:40:58;;;;;;;2.55;1.95;;;;;;;;;;4994400;28;20046;-92
2023/01/27 06:43:24;;;;;;;0.88;0.88;;;;;;;;;;4994563;28;20050;-92
2023/01/27 06:45:51;;;;;;;0.68;0.68;;;;;;;;;;4994299;28;20117;-94
2023/01/27 06:48:18;;;;;;;1.77;1.67;;;;;;;;;;4994626;28;20444;-93
2023/01/27 06:50:45;;;;;;;1.58;1.48;;;;;;;;;;4994356;28;20046;-91
2023/01/27 06:53:11;;;;;;;1.42;1.33;;;;;;;;;;4994219;28;20105;-91
2023/01/27 06:55:40;;;;;;;2.42;2.33;;;;;;;;;;4994126;28;20475;-91
2023/01/27 06:58:06;;;;;;;2.67;2.47;;;;;;;;;;4993617;28;20129;-92
2023/01/27 07:00:33;;;;;;;1.55;1.45;;;;;;;;;;4994100;28;20062;-92
2023/01/27 07:02:59;;;;;;;0.47;0.47;;;;;;;;;;4994290;28;20054;-91
2023/01/27 07:05:26;;;;;;;1.73;1.63;;;;;;;;;;4994476;28;20420;-91
2023/01/27 07:07:52;;;;;;;1.30;0.98;;;;;;;;;;4993724;28;20082;-91
2023/01/27 07:10:19;;;;;;;1.65;1.55;;;;;;;;;;4994065;28;20054;-90
2023/01/27 07:12:47;;;;;;;0.85;0.85;;;;;;;;;;4993858;28;20051;-91
2023/01/27 07:15:13;;;;;;;0.85;0.85;;;;;;;;;;4993892;28;20055;-91
2023/01/27 07:17:40;;;;;;;1.35;1.25;;;;;;;;;;4981905;28;20098;-91
2023/01/27 07:20:08;;;;;;;1.20;1.10;;;;;;;;;;4977311;28;20051;-91
2023/01/27 07:22:34;;;;;;;3.50;1.35;;;;;;;;;;4977947;28;20129;-90
2023/01/27 07:25:03;;;;;;;2.92;2.72;;;;;;;;;;4978999;28;20050;-90
2023/01/27 07:27:29;;;;;;;1.77;1.67;;;;;;;;;;4980145;28;20492;-91
2023/01/27 07:30:12;;;;;;;0.80;0.80;;;;;;;;;;4981566;28;20051;-91
2023/01/27 07:32:39;;;;;;;3.05;2.72;;;;;;;;;;4980367;28;20456;-90
2023/01/27 07:35:06;;;;;;;1.45;1.35;;;;;;;;;;4978066;28;20051;-91
2023/01/27 07:37:33;;;;;;;0.95;0.85;;;;;;;;;;4977954;28;20042;-91
2023/01/27 07:40:00;;;;;;;1.48;1.20;;;;;;;;;;4977531;28;20113;-90
2023/01/27 07:42:26;;;;;;;1.55;1.45;;;;;;;;;;4978320;28;20070;-89
2023/01/27 07:44:53;;;;;;;0.88;0.75;;;;;;;;;;4976761;28;20113;-90
2023/01/27 07:47:19;;;;;;;1.63;1.52;;;;;;;;;;4977403;28;20058;-89
2023/01/27 07:49:47;;;;;;;2.20;1.83;;;;;;;;;;4976492;28;20140;-90
2023/01/27 07:52:13;;;;;;;7.80;2.03;;;;;;;;;;4977252;28;20071;-90
2023/01/27 07:54:40;;;;;;;0.63;0.63;;;;;;;;;;4978084;28;20098;-89
2023/01/27 07:57:06;;;;;;;1.40;1.38;;;;;;;;;;4979518;28;20513;-89
2023/01/27 07:59:33;;;;;;;1.77;1.67;;;;;;;;;;4978396;28;20106;-90
2023/01/27 08:02:02;;;;;;;2.83;2.25;;;;;;;;;;4977985;28;20054;-89
2023/01/27 08:04:29;;;;;;;2.55;2.45;;;;;;;;;;4984634;28;20054;-89
2023/01/27 08:06:56;;;;;;;2.53;1.75;;;;;;;;;;4979780;28;20105;-89
2023/01/27 08:09:23;;;;;;;4.05;3.70;;;;;;;;;;5041144;23;20073;-89
2023/01/27 08:11:50;;;;;;;4.18;3.88;;;;;;;;;;4997610;28;20089;-89
2023/01/27 08:14:16;;;;;;;4.63;3.22;;;;;;;;;;4996838;28;20054;-89
2023/01/27 08:16:43;;;;;;;4.82;4.45;;;;;;;;;;4996380;28;20058;-89
2023/01/27 08:19:09;;;;;;;1.77;1.67;;;;;;;;;;4998525;28;20051;-89
2023/01/27 08:21:36;;;;;;;3.25;3.00;;;;;;;;;;4997345;28;20066;-89
2023/01/27 08:24:04;;;;;;;2.83;2.63;;;;;;;;;;4997277;28;20056;-90
2023/01/27 08:26:31;;;;;;;3.30;3.00;;;;;;;;;;4997953;28;20050;-90
2023/01/27 08:28:57;;;;;;;4.05;3.75;;;;;;;;;;4998505;28;20047;-91
2023/01/27 08:31:24;;;;;;;1.98;1.88;;;;;;;;;;4996381;28;20085;-91
2023/01/27 08:33:51;;;;;;;2.63;2.42;;;;;;;;;;4997005;28;20053;-90
2023/01/27 08:36:19;;;;;;;7.55;2.83;;;;;;;;;;4996862;28;20050;-90
2023/01/27 08:38:48;;;;;;;3.65;3.38;;;;;;;;;;4996297;28;20046;-90
2023/01/27 08:41:16;;;;;;;2.15;1.75;;;;;;;;;;4995814;28;20055;-90
2023/01/27 08:43:43;;;;;;;4.15;3.85;;;;;;;;;;4995303;28;20393;-90
2023/01/27 08:46:10;;;;;;;2.45;2.28;;;;;;;;;;4995613;28;20046;-90
2023/01/27 08:48:37;;;;;;;6.05;3.20;;;;;;;;;;4995353;28;20050;-89
2023/01/27 08:51:04;;;;;;;2.42;2.10;;;;;;;;;;4995469;28;20054;-89
2023/01/27 08:53:31;;;;;;;2.78;2.50;;;;;;;;;;4996835;28;20046;-89
2023/01/27 08:55:58;;;;;;;4.57;4.13;;;;;;;;;;4995325;28;20051;-89
2023/01/27 08:58:26;;;;;;;6.20;3.25;;;;;;;;;;4995544;28;20100;-89
2023/01/27 09:00:53;;;;;;;1.50;1.40;;;;;;;;;;4994840;28;20054;-89
2023/01/27 09:03:20;;;;;;;3.88;3.47;;;;;;;;;;4995068;28;20050;-88
2023/01/27 09:05:47;;;;;;;2.42;2.22;;;;;;;;;;4975095;28;20464;-89
2023/01/27 09:08:14;;;;;;;3.42;3.10;;;;;;;;;;4975380;28;20051;-89
2023/01/27 09:10:41;;;;;;;4.05;3.42;;;;;;;;;;4994022;28;20129;-88
2023/01/27 09:13:08;;;;;;;2.47;2.28;;;;;;;;;;4995165;28;20053;-89
2023/01/27 09:15:36;;;;;;;1.92;1.83;;;;;;;;;;4994806;28;20108;-89
2023/01/27 09:18:03;;;;;;;3.88;2.80;;;;;;;;;;4994783;28;20054;-89
2023/01/27 09:20:30;;;;;;;4.13;3.85;;;;;;;;;;4994631;28;20463;-90
2023/01/27 09:22:57;;;;;;;4.75;4.45;;;;;;;;;;4994986;28;20487;-89
2023/01/27 09:25:24;;;;;;;2.28;2.15;;;;;;;;;;4994429;28;20051;-88
2023/01/27 09:27:53;;;;;;;2.05;1.95;;;;;;;;;;4994816;28;20050;-89
2023/01/27 09:30:20;;;;;;;2.45;2.25;;;;;;;;;;4993975;28;20492;-88
2023/01/27 09:32:48;;;;;;;4.45;1.15;;;;;;;;;;5008897;28;20169;-88
2023/01/27 09:35:15;;;;;;;1.63;1.17;;;;;;;;;;5014002;28;20050;-89
2023/01/27 09:37:45;;;;;;;2.22;2.05;;;;;;;;;;5014055;28;20046;-88
2023/01/27 09:40:14;;;;;;;2.88;2.60;;;;;;;;;;5014246;28;20050;-87
2023/01/27 09:42:58;;;;;;;2.67;2.47;;;;;;;;;;5013815;28;20050;-88
2023/01/27 09:45:32;;;;;;;2.08;1.98;;;;;;;;;;4965363;28;20051;-88
2023/01/27 09:48:20;;;;;;;1.60;1.48;;;;;;;;;;4975170;28;20524;-88
2023/01/27 09:50:50;;;;;;;1.25;1.20;;;;;;;;;;4974718;28;20142;-88
2023/01/27 09:53:26;;;;;;;2.05;1.92;;;;;;;;;;4974699;28;20054;-89
2023/01/27 09:55:56;;;;;;;3.13;2.15;;;;;;;;;;4980758;28;20468;-88
2023/01/27 09:58:29;;;;;;;1.48;1.38;;;;;;;;;;4993671;28;20093;-88
2023/01/27 10:01:00;;;;;;;2.55;2.45;;;;;;;;;;4994187;28;20050;-89
2023/01/27 10:03:49;;;;;;;1.80;1.40;;;;;;;;;;4993957;28;20108;-88
2023/01/27 10:06:34;;;;;;;1.13;1.13;;;;;;;;;;4994284;28;20050;-88
2023/01/27 10:09:11;;;;;;;2.08;1.95;;;;;;;;;;4993929;28;20116;-89
2023/01/27 10:11:42;;;;;;;1.38;1.05;;;;;;;;;;4993767;28;20050;-88
2023/01/27 10:14:17;;;;;;;3.72;3.08;;;;;;;;;;4993768;28;20385;-88
2023/01/27 10:16:52;;;;;;;1.63;1.52;;;;;;;;;;4993826;28;20471;-89
2023/01/27 10:19:27;;;;;;;1.40;1.30;;;;;;;;;;4993264;28;20136;-89
2023/01/27 10:21:58;;;;;;;0.90;0.90;;;;;;;;;;4993461;28;20570;-89
2023/01/27 10:24:29;;;;;;;2.15;1.33;;;;;;;;;;5005014;28;20137;-89
2023/01/27 10:26:59;;;;;;;2.97;2.10;;;;;;;;;;5013372;28;20393;-89
2023/01/27 10:29:31;;;;;;;1.48;1.20;;;;;;;;;;5014159;28;20050;-89
2023/01/27 10:31:57;;;;;;;;;;;;;;;;;;5014249;28;20129;-89
2023/01/27 10:34:30;;;;;;;1.02;1.02;;;;;;;;;;5014697;28;19960;-90
2023/01/27 10:37:04;;;;;;;1.67;1.58;;;;;;;;;;5014675;28;20082;-89
2023/01/27 10:39:33;;;;;;;1.30;1.20;;;;;;;;;;5015364;28;20141;-90
2023/01/27 10:42:04;;;;;;;1.13;1.02;;;;;;;;;;5014739;28;20053;-90
2023/01/27 10:44:44;;;;;;;1.85;1.73;;;;;;;;;;4981406;28;20054;-89
2023/01/27 10:47:15;;;;;;;1.27;1.15;;;;;;;;;;4974207;28;20050;-90
2023/01/27 10:49:48;;;;;;;1.60;1.50;;;;;;;;;;4974300;28;20047;-89
2023/01/27 10:52:17;;;;;;;2.05;1.95;;;;;;;;;;4975064;28;20073;-89
2023/01/27 10:54:46;;;;;;;1.38;1.27;;;;;;;;;;4978171;28;20066;-89
2023/01/27 10:57:14;;;;;;;1.58;1.48;;;;;;;;;;4978687;28;20061;-89
2023/01/27 10:59:45;;;;;;;1.35;1.33;;;;;;;;;;4978296;28;20473;-90
2023/01/27 11:02:16;;;;;;;2.75;1.80;;;;;;;;;;5002995;28;20073;-89
2023/01/27 11:04:46;;;;;;;1.60;1.50;;;;;;;;;;5021388;28;20050;-89
2023/01/27 11:07:16;;;;;;;1.70;1.60;;;;;;;;;;5017386;28;20104;-88
2023/01/27 11:09:47;;;;;;;1.25;1.15;;;;;;;;;;5017029;28;20057;-89
2023/01/27 11:12:14;;;;;;;0.93;0.93;;;;;;;;;;5017605;28;20495;-88
2023/01/27 11:14:44;;;;;;;1.52;1.42;;;;;;;;;;5017008;28;20447;-88
2023/01/27 11:17:14;;;;;;;2.75;2.55;;;;;;;;;;5017110;28;20049;-88
2023/01/27 11:19:45;;;;;;;1.83;1.70;;;;;;;;;;5010610;28;20046;-87
2023/01/27 11:22:18;;;;;;;2.17;2.00;;;;;;;;;;4997381;28;20054;-87
2023/01/27 11:24:46;;;;;;;4.05;3.70;;;;;;;;;;4996921;28;20104;-87
2023/01/27 11:27:18;;;;;;;4.13;3.05;;;;;;;;;;4997047;28;20057;-87
2023/01/27 11:29:48;;;;;;;2.40;2.20;;;;;;;;;;4996686;28;20104;-87
2023/01/27 11:32:19;;;;;;;1.38;1.27;;;;;;;;;;4997091;28;20055;-86
2023/01/27 11:34:54;;;;;;;3.05;2.70;;;;;;;;;;4996800;28;20097;-87
2023/01/27 11:37:22;;;;;;;2.70;2.53;;;;;;;;;;4999101;28;20522;-87
2023/01/27 11:39:49;;;;;;;7.70;5.38;;;;;;;;;;4991929;28;20100;-86
2023/01/27 11:42:16;;;;;;;3.78;3.40;;;;;;;;;;4996597;28;20050;-87
2023/01/27 11:44:43;;;;;;;5.20;4.32;;;;;;;;;;4996213;28;20424;-86
2023/01/27 11:47:17;;;;;;;2.75;1.52;;;;;;;;;;4996558;28;20117;-86
2023/01/27 11:49:46;;;;;;;2.92;2.08;;;;;;;;;;4996245;28;20120;-86
2023/01/27 11:52:16;;;;;;;1.13;1.13;;;;;;;;;;4996704;28;20050;-85
2023/01/27 11:54:44;;;;;;;2.78;1.85;;;;;;;;;;5002227;28;20487;-85
2023/01/27 11:57:15;;;;;;;2.47;2.28;;;;;;;;;;5015110;28;20050;-85
2023/01/27 11:59:42;;;;;;;;;;;;;;;;;;5016240;28;20050;-85
2023/01/27 12:02:14;;;;;;;1.40;1.27;;;;;;;;;;5015848;28;20441;-85
2023/01/27 12:04:47;;;;;;;4.30;3.90;;;;;;;;;;5014537;28;20057;-84
2023/01/27 12:07:17;;;;;;;0.98;0.98;;;;;;;;;;5015561;28;20503;-87
2023/01/27 12:09:44;;;;;;;3.00;2.70;;;;;;;;;;5005362;28;20121;-84
2023/01/27 12:12:21;;;;;;;2.22;2.08;;;;;;;;;;4998885;28;20050;-84
2023/01/27 12:14:48;;;;;;;4.20;3.35;;;;;;;;;;4995572;28;20133;-84
2023/01/27 12:17:19;;;;;;;3.42;2.80;;;;;;;;;;4995662;28;20050;-85
2023/01/27 12:19:46;;;;;;;2.60;2.42;;;;;;;;;;4982553;28;20097;-85
2023/01/27 12:22:17;;;;;;;2.05;1.95;;;;;;;;;;4996216;28;20480;-84
2023/01/27 12:24:49;;;;;;;3.15;1.80;;;;;;;;;;4995680;28;20629;-85
2023/01/27 12:27:20;;;;;;;2.17;2.08;;;;;;;;;;4996026;28;20054;-85
2023/01/27 12:29:49;;;;;;;5.40;2.70;;;;;;;;;;4997344;28;20043;-85
2023/01/27 12:32:17;;;;;;;3.25;2.95;;;;;;;;;;4995107;28;20082;-85
2023/01/27 12:34:45;;;;;;;4.53;3.25;;;;;;;;;;4995737;28;20141;-85
2023/01/27 12:37:19;;;;;;;3.25;3.05;;;;;;;;;;4976126;28;20110;-86
2023/01/27 12:39:51;;;;;;;3.25;3.00;;;;;;;;;;4975728;28;20611;-85
2023/01/27 12:42:37;;;;;;;3.40;3.22;;;;;;;;;;4999940;28;20050;-83
2023/01/27 12:45:28;;;;;;;2.22;2.13;;;;;;;;;;5010831;28;20664;-83
2023/01/27 12:47:55;;;;;;;2.08;1.98;;;;;;;;;;4998019;28;20053;-85
2023/01/27 12:50:23;;;;;;;3.20;3.00;;;;;;;;;;4999311;28;20078;-83
2023/01/27 12:53:07;;;;;;;1.77;1.67;;;;;;;;;;4997582;28;20050;-84
2023/01/27 12:55:36;;;;;;;3.85;3.50;;;;;;;;;;4999107;28;20042;-85
2023/01/27 12:58:03;;;;;;;3.38;3.15;;;;;;;;;;4999070;28;20051;-83
2023/01/27 13:00:30;;;;;;;3.30;2.47;;;;;;;;;;4998660;28;20116;-87
2023/01/27 13:03:03;;;;;;;1.23;1.15;;;;;;;;;;5002027;28;20050;-86
2023/01/27 13:05:35;;;;;;;2.10;1.92;;;;;;;;;;4999971;28;20046;-86
2023/01/27 13:08:02;;;;;;;1.67;1.55;;;;;;;;;;4997361;28;20505;-85
2023/01/27 13:10:33;;;;;;;0.75;0.68;;;;;;;;;;4979822;28;20081;-86
2023/01/27 13:13:01;;;;;;;1.90;1.80;;;;;;;;;;4998598;28;20042;-84
2023/01/27 13:15:29;;;;;;;1.70;1.45;;;;;;;;;;4998823;28;20054;-84
2023/01/27 13:17:57;;;;;;;1.83;1.73;;;;;;;;;;4999908;28;20100;-85
2023/01/27 13:20:26;;;;;;;3.17;2.97;;;;;;;;;;5015207;28;20054;-85
2023/01/27 13:22:56;;;;;;;5.53;3.72;;;;;;;;;;5000509;28;20050;-85
2023/01/27 13:25:24;;;;;;;2.25;1.73;;;;;;;;;;5000369;28;20077;-84
2023/01/27 13:27:59;;;;;;;3.40;2.78;;;;;;;;;;4999616;28;20050;-86
2023/01/27 13:30:30;;;;;;;2.25;2.05;;;;;;;;;;5000823;28;20062;-85
2023/01/27 13:33:00;;;;;;;3.63;3.35;;;;;;;;;;4997696;28;20051;-85
2023/01/27 13:35:31;;;;;;;1.98;1.33;;;;;;;;;;4998847;28;20050;-85
2023/01/27 13:38:00;;;;;;;3.08;2.42;;;;;;;;;;4999486;28;20050;-85
2023/01/27 13:40:29;;;;;;;2.67;2.50;;;;;;;;;;4995773;28;20693;-86
2023/01/27 13:43:00;;;;;;;1.60;1.50;;;;;;;;;;4997035;28;20138;-86
2023/01/27 13:45:33;;;;;;;2.22;2.08;;;;;;;;;;4999868;28;20058;-86
2023/01/27 13:48:01;;;;;;;3.20;2.92;;;;;;;;;;4975321;28;20054;-83
2023/01/27 13:50:31;;;;;;;2.47;2.35;;;;;;;;;;4974907;28;20076;-83
2023/01/27 13:52:58;;;;;;;2.28;2.17;;;;;;;;;;4988110;28;20050;-84
2023/01/27 13:55:34;;;;;;;1.13;1.10;;;;;;;;;;4994353;28;20108;-85
2023/01/27 13:58:05;;;;;;;1.75;1.65;;;;;;;;;;4993846;28;20109;-84
2023/01/27 14:00:35;;;;;;;1.95;1.50;;;;;;;;;;4993834;28;20046;-87
2023/01/27 14:03:17;;;;;;;2.60;2.30;;;;;;;;;;4994011;28;20142;-84
2023/01/27 14:05:48;;;;;;;2.38;2.17;;;;;;;;;;4991074;28;20557;-84
2023/01/27 14:08:20;;;;;;;3.35;2.47;;;;;;;;;;4993948;28;20120;-85
2023/01/27 14:10:54;;;;;;;3.13;2.83;;;;;;;;;;5007886;28;20053;-84
2023/01/27 14:13:28;;;;;;;3.03;2.83;;;;;;;;;;5014013;28;20057;-84
2023/01/27 14:16:01;;;;;;;3.05;2.60;;;;;;;;;;5010092;28;20054;-85
2023/01/27 14:18:30;;;;;;;1.83;1.60;;;;;;;;;;4994697;28;20057;-85
2023/01/27 14:21:07;;;;;;;2.15;2.05;;;;;;;;;;4992550;28;20046;-85
2023/01/27 14:23:41;;;;;;;2.60;2.13;;;;;;;;;;4993631;28;20598;-84
2023/01/27 14:26:22;;;;;;;1.75;1.63;;;;;;;;;;5000159;28;20046;-85
2023/01/27 14:28:57;;;;;;;2.25;2.15;;;;;;;;;;5012478;28;20487;-84
2023/01/27 14:31:33;;;;;;;0.80;0.80;;;;;;;;;;5013633;28;20491;-86
2023/01/27 14:34:03;;;;;;;2.33;2.22;;;;;;;;;;5013343;28;20107;-84
2023/01/27 14:36:33;;;;;;;2.28;1.35;;;;;;;;;;5013350;28;20049;-84
2023/01/27 14:39:03;;;;;;;2.85;2.05;;;;;;;;;;5000461;28;20053;-84
2023/01/27 14:41:34;;;;;;;0.88;0.88;;;;;;;;;;4993613;28;20058;-85
2023/01/27 14:44:03;;;;;;;1.08;1.08;;;;;;;;;;4993615;28;20054;-85
2023/01/27 14:46:38;;;;;;;1.02;1.00;;;;;;;;;;4993766;28;20054;-85
2023/01/27 14:49:10;;;;;;;1.20;1.13;;;;;;;;;;4993834;28;20046;-85
2023/01/27 14:51:40;;;;;;;3.33;1.45;;;;;;;;;;4993560;28;20112;-84
2023/01/27 14:54:18;;;;;;;1.17;0.95;;;;;;;;;;4993202;28;20090;-85
2023/01/27 14:56:46;;;;;;;0.90;0.90;;;;;;;;;;4991606;28;20496;-85
2023/01/27 14:59:16;;;;;;;2.65;1.50;;;;;;;;;;4993215;28;20051;-85
2023/01/27 15:01:48;;;;;;;1.95;1.85;;;;;;;;;;4993028;28;20120;-85
2023/01/27 15:04:14;;;;;;;;;;;;;;;;;;4993977;28;20054;-84
2023/01/27 15:06:46;;;;;;;1.88;1.77;;;;;;;;;;4993149;28;19972;-84
2023/01/27 15:09:18;;;;;;;1.50;1.42;;;;;;;;;;4993435;28;20058;-85
2023/01/27 15:12:02;;;;;;;2.35;2.15;;;;;;;;;;4993085;28;20050;-85
2023/01/27 15:14:59;;;;;;;1.17;1.17;;;;;;;;;;4993378;28;20047;-84
2023/01/27 15:17:33;;;;;;;5.05;3.53;;;;;;;;;;4922389;29;20048;-85
2023/01/27 15:20:19;;;;;;;1.38;1.30;;;;;;;;;;4952277;29;20082;-84
2023/01/27 15:22:53;;;;;;;1.52;1.42;;;;;;;;;;4937288;29;20047;-85
2023/01/27 15:25:38;;;;;;;1.92;1.83;;;;;;;;;;4935073;29;20103;-85
2023/01/27 15:28:05;;;;;;;1.70;1.60;;;;;;;;;;4942113;29;20052;-86
2023/01/27 15:30:33;;;;;;;2.55;2.42;;;;;;;;;;4934620;29;20051;-87
2023/01/27 15:33:18;;;;;;;2.05;1.95;;;;;;;;;;4942853;29;20063;-88
2023/01/27 15:36:00;;;;;;;2.10;1.70;;;;;;;;;;4934697;29;20055;-87
2023/01/27 15:38:32;;;;;;;2.97;2.78;;;;;;;;;;4947717;29;20066;-86
2023/01/27 15:41:03;;;;;;;0.65;0.65;;;;;;;;;;4952287;28;20488;-85
2023/01/27 15:43:30;;;;;;;1.33;1.23;;;;;;;;;;4955936;29;20073;-85
2023/01/27 15:45:57;;;;;;;14.20;3.83;;;;;;;;;;4950429;29;20143;-85
2023/01/27 15:48:26;;;;;;;5.60;2.60;;;;;;;;;;4935626;29;20441;-86
2023/01/27 15:50:56;;;;;;;1.08;0.98;;;;;;;;;;4948356;28;20132;-86
2023/01/27 15:53:27;;;;;;;4.32;2.78;;;;;;;;;;4996888;28;20054;-85
2023/01/27 15:55:55;;;;;;;1.45;1.35;;;;;;;;;;4996661;28;20419;-85
2023/01/27 15:58:24;;;;;;;1.50;1.40;;;;;;;;;;4996556;28;20077;-85
2023/01/27 16:00:52;;;;;;;2.28;2.17;;;;;;;;;;4996286;28;20046;-86
2023/01/27 16:03:21;;;;;;;1.73;1.63;;;;;;;;;;4999537;28;20096;-84
2023/01/27 16:05:50;;;;;;;1.27;1.02;;;;;;;;;;5016195;28;20050;-86
2023/01/27 16:08:19;;;;;;;0.60;0.60;;;;;;;;;;5015774;28;20050;-85
2023/01/27 16:10:46;;;;;;;1.60;1.50;;;;;;;;;;5015340;28;20066;-85
2023/01/27 16:13:15;;;;;;;2.42;2.22;;;;;;;;;;5014778;28;20092;-86
2023/01/27 16:15:41;;;;;;;1.70;1.60;;;;;;;;;;4996723;28;20054;-89
2023/01/27 16:18:25;;;;;;;1.42;1.33;;;;;;;;;;5004856;28;20054;-87
2023/01/27 16:20:51;;;;;;;;;;;;;;;;;;5004613;28;20452;-86
2023/01/27 16:23:30;;;;;;;3.92;3.05;;;;;;;;;;4995515;28;19932;-86
2023/01/27 16:26:05;;;;;;;3.38;2.47;;;;;;;;;;4996306;28;20485;-85
2023/01/27 16:28:32;;;;;;;3.60;3.40;;;;;;;;;;4995949;28;20054;-85
2023/01/27 16:31:03;;;;;;;0.43;0.43;;;;;;;;;;4996288;28;20046;-85
2023/01/27 16:33:31;;;;;;;1.67;1.58;;;;;;;;;;4996062;28;20050;-84
2023/01/27 16:35:59;;;;;;;1.80;1.70;;;;;;;;;;4999428;28;20096;-85
2023/01/27 16:38:29;;;;;;;1.20;1.10;;;;;;;;;;4999310;28;20492;-85
2023/01/27 16:40:56;;;;;;;2.88;2.55;;;;;;;;;;4994785;28;20051;-85